sensor_id;sensor_type;location;lat;lon;timestamp;pressure;altitude;pressure_sealevel;temperature;humidity
79455;BME280;68900;52.134;5.420;2024-03-07T00:00:29;102804.78;;;4.64;99.73
79455;BME280;68900;52.134;5.420;2024-03-07T00:02:55;102812.81;;;4.64;99.84
79455;BME280;68900;52.134;5.420;2024-03-07T00:05:22;102805.72;;;4.63;99.96
79455;BME280;68900;52.134;5.420;2024-03-07T00:07:53;102809.41;;;4.61;99.75
79455;BME280;68900;52.134;5.420;2024-03-07T00:10:20;102810.53;;;4.55;99.55
79455;BME280;68900;52.134;5.420;2024-03-07T00:12:50;102806.09;;;4.54;99.42
79455;BME280;68900;52.134;5.420;2024-03-07T00:15:17;102809.78;;;4.52;99.65
79455;BME280;68900;52.134;5.420;2024-03-07T00:17:44;102813.44;;;4.49;99.22
79455;BME280;68900;52.134;5.420;2024-03-07T00:20:11;102809.13;;;4.47;99.62
79455;BME280;68900;52.134;5.420;2024-03-07T00:22:42;102810.91;;;4.46;99.90
79455;BME280;68900;52.134;5.420;2024-03-07T00:25:09;102810.03;;;4.45;100.00
79455;BME280;68900;52.134;5.420;2024-03-07T00:27:37;102803.91;;;4.43;100.00
79455;BME280;68900;52.134;5.420;2024-03-07T00:30:07;102807.56;;;4.41;100.00
79455;BME280;68900;52.134;5.420;2024-03-07T00:32:47;102802.22;;;4.41;100.00
79455;BME280;68900;52.134;5.420;2024-03-07T00:35:15;102806.63;;;4.42;100.00
79455;BME280;68900;52.134;5.420;2024-03-07T00:37:44;102806.63;;;4.42;100.00
79455;BME280;68900;52.134;5.420;2024-03-07T00:40:11;102808.44;;;4.41;100.00
79455;BME280;68900;52.134;5.420;2024-03-07T00:42:38;102814.78;;;4.39;100.00
79455;BME280;68900;52.134;5.420;2024-03-07T00:45:05;102817.38;;;4.40;100.00
79455;BME280;68900;52.134;5.420;2024-03-07T00:47:32;102812.16;;;4.37;100.00
79455;BME280;68900;52.134;5.420;2024-03-07T00:50:00;102811.28;;;4.37;100.00
79455;BME280;68900;52.134;5.420;2024-03-07T00:52:26;102809.50;;;4.37;100.00
79455;BME280;68900;52.134;5.420;2024-03-07T00:54:53;102813.97;;;4.37;100.00
79455;BME280;68900;52.134;5.420;2024-03-07T00:57:22;102820.22;;;4.36;100.00
79455;BME280;68900;52.134;5.420;2024-03-07T00:59:49;102806.97;;;4.34;100.00
79455;BME280;68900;52.134;5.420;2024-03-07T01:02:16;102805.22;;;4.33;100.00
79455;BME280;68900;52.134;5.420;2024-03-07T01:04:43;102809.81;;;4.30;100.00
79455;BME280;68900;52.134;5.420;2024-03-07T01:07:10;102808.06;;;4.29;100.00
79455;BME280;68900;52.134;5.420;2024-03-07T01:09:37;102800.09;;;4.27;100.00
79455;BME280;68900;52.134;5.420;2024-03-07T01:12:04;102803.72;;;4.26;100.00
79455;BME280;68900;52.134;5.420;2024-03-07T01:14:32;102795.97;;;4.20;100.00
79455;BME280;68900;52.134;5.420;2024-03-07T01:16:58;102799.63;;;4.18;100.00
79455;BME280;68900;52.134;5.420;2024-03-07T01:19:25;102790.69;;;4.19;100.00
79455;BME280;68900;52.134;5.420;2024-03-07T01:21:51;102794.28;;;4.18;100.00
79455;BME280;68900;52.134;5.420;2024-03-07T01:24:18;102797.88;;;4.17;100.00
79455;BME280;68900;52.134;5.420;2024-03-07T01:26:46;102794.28;;;4.18;100.00
79455;BME280;68900;52.134;5.420;2024-03-07T01:29:14;102799.50;;;4.21;100.00
79455;BME280;68900;52.134;5.420;2024-03-07T01:31:41;102789.81;;;4.18;100.00
79455;BME280;68900;52.134;5.420;2024-03-07T01:34:10;102794.28;;;4.18;100.00
79455;BME280;68900;52.134;5.420;2024-03-07T01:36:39;102803.16;;;4.18;100.00
79455;BME280;68900;52.134;5.420;2024-03-07T01:39:08;102799.63;;;4.18;100.00
79455;BME280;68900;52.134;5.420;2024-03-07T01:41:39;102798.88;;;4.14;100.00
79455;BME280;68900;52.134;5.420;2024-03-07T01:44:06;102796.19;;;4.14;100.00
79455;BME280;68900;52.134;5.420;2024-03-07T01:46:33;102798.75;;;4.17;100.00
79455;BME280;68900;52.134;5.420;2024-03-07T01:49:01;102792.59;;;4.15;100.00
79455;BME280;68900;52.134;5.420;2024-03-07T01:51:27;102787.38;;;4.12;100.00
79455;BME280;68900;52.134;5.420;2024-03-07T01:53:54;102791.03;;;4.10;100.00
79455;BME280;68900;52.134;5.420;2024-03-07T01:56:21;102785.75;;;4.08;100.00
79455;BME280;68900;52.134;5.420;2024-03-07T01:58:49;102782.34;;;4.05;100.00
79455;BME280;68900;52.134;5.420;2024-03-07T02:01:16;102785.06;;;4.03;100.00
79455;BME280;68900;52.134;5.420;2024-03-07T02:03:43;102785.19;;;4.00;100.00
79455;BME280;68900;52.134;5.420;2024-03-07T02:06:11;102783.47;;;3.99;100.00
79455;BME280;68900;52.134;5.420;2024-03-07T02:08:38;102783.59;;;3.96;100.00
79455;BME280;68900;52.134;5.420;2024-03-07T02:11:05;102782.84;;;3.92;100.00
79455;BME280;68900;52.134;5.420;2024-03-07T02:13:31;102786.50;;;3.90;100.00
79455;BME280;68900;52.134;5.420;2024-03-07T02:15:58;102788.41;;;3.86;100.00
79455;BME280;68900;52.134;5.420;2024-03-07T02:18:25;102779.50;;;3.87;100.00
79455;BME280;68900;52.134;5.420;2024-03-07T02:20:52;102784.69;;;3.90;100.00
79455;BME280;68900;52.134;5.420;2024-03-07T02:23:19;102782.06;;;3.89;100.00
79455;BME280;68900;52.134;5.420;2024-03-07T02:25:46;102778.31;;;3.94;100.00
79455;BME280;68900;52.134;5.420;2024-03-07T02:28:12;102786.41;;;3.93;100.00
79455;BME280;68900;52.134;5.420;2024-03-07T02:33:31;102779.13;;;3.96;100.00
79455;BME280;68900;52.134;5.420;2024-03-07T02:35:58;102783.59;;;3.96;100.00
79455;BME280;68900;52.134;5.420;2024-03-07T02:38:25;102776.50;;;3.95;100.00
79455;BME280;68900;52.134;5.420;2024-03-07T02:40:51;102783.78;;;3.91;100.00
79455;BME280;68900;52.134;5.420;2024-03-07T02:43:18;102777.75;;;3.86;100.00
79455;BME280;68900;52.134;5.420;2024-03-07T02:45:44;102777.09;;;3.80;100.00
79455;BME280;68900;52.134;5.420;2024-03-07T02:48:11;102775.25;;;3.82;100.00
79455;BME280;68900;52.134;5.420;2024-03-07T02:50:37;102770.72;;;3.84;100.00
79455;BME280;68900;52.134;5.420;2024-03-07T02:53:04;102776.03;;;3.84;100.00
79455;BME280;68900;52.134;5.420;2024-03-07T02:55:31;102769.88;;;3.83;100.00
79455;BME280;68900;52.134;5.420;2024-03-07T02:58:01;102760.16;;;3.81;100.00
79455;BME280;68900;52.134;5.420;2024-03-07T03:00:27;102766.44;;;3.80;100.00
79455;BME280;68900;52.134;5.420;2024-03-07T03:02:56;102760.41;;;3.75;100.00
79455;BME280;68900;52.134;5.420;2024-03-07T03:05:23;102752.38;;;3.75;100.00
79455;BME280;68900;52.134;5.420;2024-03-07T03:07:50;102759.56;;;3.74;100.00
79455;BME280;68900;52.134;5.420;2024-03-07T03:10:24;102761.44;;;3.71;100.00
79455;BME280;68900;52.134;5.420;2024-03-07T03:12:57;102751.72;;;3.70;100.00
79455;BME280;68900;52.134;5.420;2024-03-07T03:15:26;102751.78;;;3.68;100.00
79455;BME280;68900;52.134;5.420;2024-03-07T03:17:52;102744.75;;;3.66;100.00
79455;BME280;68900;52.134;5.420;2024-03-07T03:20:19;102743.94;;;3.64;100.00
79455;BME280;68900;52.134;5.420;2024-03-07T03:22:53;102744.00;;;3.62;100.00
79455;BME280;68900;52.134;5.420;2024-03-07T03:25:42;102739.66;;;3.60;100.00
79455;BME280;68900;52.134;5.420;2024-03-07T03:28:09;102739.78;;;3.56;100.00
79455;BME280;68900;52.134;5.420;2024-03-07T03:30:37;102735.38;;;3.55;100.00
79455;BME280;68900;52.134;5.420;2024-03-07T03:33:05;102731.91;;;3.53;100.00
79455;BME280;68900;52.134;5.420;2024-03-07T03:35:34;102731.03;;;3.53;100.00
79455;BME280;68900;52.134;5.420;2024-03-07T03:38:03;102726.69;;;3.50;100.00
79455;BME280;68900;52.134;5.420;2024-03-07T03:40:30;102736.59;;;3.47;100.00
79455;BME280;68900;52.134;5.420;2024-03-07T03:42:56;102728.66;;;3.45;100.00
79455;BME280;68900;52.134;5.420;2024-03-07T03:45:23;102730.47;;;3.45;100.00
79455;BME280;68900;52.134;5.420;2024-03-07T03:47:51;102724.38;;;3.41;100.00
79455;BME280;68900;52.134;5.420;2024-03-07T03:50:18;102734.28;;;3.38;100.00
79455;BME280;68900;52.134;5.420;2024-03-07T03:52:46;102736.94;;;3.38;100.00
79455;BME280;68900;52.134;5.420;2024-03-07T03:55:14;102738.00;;;3.34;100.00
79455;BME280;68900;52.134;5.420;2024-03-07T03:57:42;102739.00;;;3.31;100.00
79455;BME280;68900;52.134;5.420;2024-03-07T04:00:10;102732.81;;;3.29;100.00
79455;BME280;68900;52.134;5.420;2024-03-07T04:02:49;102733.81;;;3.27;100.00
79455;BME280;68900;52.134;5.420;2024-03-07T04:05:20;102732.09;;;3.26;100.00
79455;BME280;68900;52.134;5.420;2024-03-07T04:07:48;102730.34;;;3.25;100.00
79455;BME280;68900;52.134;5.420;2024-03-07T04:10:16;102738.47;;;3.22;100.00
79455;BME280;68900;52.134;5.420;2024-03-07T04:12:44;102734.03;;;3.21;100.00
79455;BME280;68900;52.134;5.420;2024-03-07T04:15:12;102734.91;;;3.21;100.00
79455;BME280;68900;52.134;5.420;2024-03-07T04:17:39;102727.84;;;3.20;100.00
79455;BME280;68900;52.134;5.420;2024-03-07T04:20:10;102726.97;;;3.20;100.00
79455;BME280;68900;52.134;5.420;2024-03-07T04:22:39;102722.50;;;3.20;100.00
79455;BME280;68900;52.134;5.420;2024-03-07T04:25:07;102731.38;;;3.21;100.00
79455;BME280;68900;52.134;5.420;2024-03-07T04:27:34;102717.25;;;3.19;100.00
79455;BME280;68900;52.134;5.420;2024-03-07T04:30:07;102720.84;;;3.18;100.00
79455;BME280;68900;52.134;5.420;2024-03-07T04:32:38;102720.94;;;3.15;100.00
79455;BME280;68900;52.134;5.420;2024-03-07T04:35:08;102725.31;;;3.17;100.00
79455;BME280;68900;52.134;5.420;2024-03-07T04:37:37;102726.25;;;3.15;100.00
79455;BME280;68900;52.134;5.420;2024-03-07T04:40:08;102720.94;;;3.15;100.00
79455;BME280;68900;52.134;5.420;2024-03-07T04:42:48;102734.34;;;3.13;100.00
79455;BME280;68900;52.134;5.420;2024-03-07T04:45:16;102729.09;;;3.10;100.00
79455;BME280;68900;52.134;5.420;2024-03-07T04:47:43;102728.31;;;3.08;100.00
79455;BME280;68900;52.134;5.420;2024-03-07T04:50:15;102721.34;;;3.04;100.00
79455;BME280;68900;52.134;5.420;2024-03-07T04:52:47;102724.13;;;3.01;100.00
79455;BME280;68900;52.134;5.420;2024-03-07T04:55:16;102722.41;;;3.00;100.00
79455;BME280;68900;52.134;5.420;2024-03-07T04:57:43;102719.78;;;2.98;100.00
79455;BME280;68900;52.134;5.420;2024-03-07T05:00:13;102725.16;;;2.97;100.00
79455;BME280;68900;52.134;5.420;2024-03-07T05:02:46;102723.44;;;2.96;100.00
79455;BME280;68900;52.134;5.420;2024-03-07T05:05:14;102719.81;;;2.97;100.00
79455;BME280;68900;52.134;5.420;2024-03-07T05:07:41;102717.25;;;2.95;100.00
79455;BME280;68900;52.134;5.420;2024-03-07T05:10:07;102722.56;;;2.95;100.00
79455;BME280;68900;52.134;5.420;2024-03-07T05:12:35;102718.03;;;2.97;100.00
79455;BME280;68900;52.134;5.420;2024-03-07T05:15:04;102720.69;;;2.97;100.00
79455;BME280;68900;52.134;5.420;2024-03-07T05:17:31;102725.28;;;2.94;100.00
79455;BME280;68900;52.134;5.420;2024-03-07T05:20:01;102722.75;;;2.91;100.00
79455;BME280;68900;52.134;5.420;2024-03-07T05:22:27;102724.56;;;2.89;100.00
79455;BME280;68900;52.134;5.420;2024-03-07T05:24:56;102728.13;;;2.89;100.00
79455;BME280;68900;52.134;5.420;2024-03-07T05:27:26;102726.38;;;2.88;100.00
79455;BME280;68900;52.134;5.420;2024-03-07T05:29:54;102723.75;;;2.87;100.00
79455;BME280;68900;52.134;5.420;2024-03-07T05:34:50;102726.66;;;2.81;100.00
79455;BME280;68900;52.134;5.420;2024-03-07T05:37:17;102718.66;;;2.81;100.00
79455;BME280;68900;52.134;5.420;2024-03-07T05:39:43;102724.75;;;2.84;100.00
79455;BME280;68900;52.134;5.420;2024-03-07T05:59:20;102722.38;;;2.77;100.00
79455;BME280;68900;52.134;5.420;2024-03-07T06:01:48;102722.44;;;2.74;100.00
79455;BME280;68900;52.134;5.420;2024-03-07T06:04:14;102730.56;;;2.71;100.00
79455;BME280;68900;52.134;5.420;2024-03-07T06:06:41;102726.28;;;2.66;100.00
79455;BME280;68900;52.134;5.420;2024-03-07T06:09:09;102732.53;;;2.65;100.00
79455;BME280;68900;52.134;5.420;2024-03-07T06:11:37;102738.75;;;2.64;100.00
79455;BME280;68900;52.134;5.420;2024-03-07T06:14:05;102743.28;;;2.62;100.00
79455;BME280;68900;52.134;5.420;2024-03-07T06:16:36;102732.69;;;2.61;100.00
79455;BME280;68900;52.134;5.420;2024-03-07T06:19:06;102733.59;;;2.60;100.00
79455;BME280;68900;52.134;5.420;2024-03-07T06:21:38;102738.06;;;2.59;100.00
79455;BME280;68900;52.134;5.420;2024-03-07T06:24:09;102739.00;;;2.58;100.00
79455;BME280;68900;52.134;5.420;2024-03-07T06:26:38;102732.84;;;2.56;100.00
79455;BME280;68900;52.134;5.420;2024-03-07T06:29:16;102737.25;;;2.57;100.00
79455;BME280;68900;52.134;5.420;2024-03-07T06:31:44;102736.38;;;2.57;100.00
79455;BME280;68900;52.134;5.420;2024-03-07T06:34:16;102740.00;;;2.54;100.00
79455;BME280;68900;52.134;5.420;2024-03-07T06:36:44;102735.63;;;2.53;100.00
79455;BME280;68900;52.134;5.420;2024-03-07T06:39:11;102740.00;;;2.54;100.00
79455;BME280;68900;52.134;5.420;2024-03-07T06:41:39;102739.09;;;2.55;100.00
79455;BME280;68900;52.134;5.420;2024-03-07T06:44:06;102742.66;;;2.54;100.00
79455;BME280;68900;52.134;5.420;2024-03-07T06:46:36;102738.16;;;2.56;100.00
79455;BME280;68900;52.134;5.420;2024-03-07T06:49:03;102741.72;;;2.57;100.00
79455;BME280;68900;52.134;5.420;2024-03-07T06:51:39;102730.91;;;2.61;100.00
79455;BME280;68900;52.134;5.420;2024-03-07T06:54:09;102743.28;;;2.62;100.00
79455;BME280;68900;52.134;5.420;2024-03-07T06:56:37;102739.75;;;2.62;100.00
79455;BME280;68900;52.134;5.420;2024-03-07T06:59:03;102737.13;;;2.60;100.00
79455;BME280;68900;52.134;5.420;2024-03-07T07:01:31;102735.22;;;2.64;100.00
79455;BME280;68900;52.134;5.420;2024-03-07T07:03:58;102737.81;;;2.67;100.00
79455;BME280;68900;52.134;5.420;2024-03-07T07:06:28;102731.47;;;2.70;100.00
79455;BME280;68900;52.134;5.420;2024-03-07T07:08:54;102724.53;;;2.65;100.00
79455;BME280;68900;52.134;5.420;2024-03-07T07:11:21;102737.84;;;2.65;100.00
79455;BME280;68900;52.134;5.420;2024-03-07T07:13:48;102729.41;;;2.78;100.00
79455;BME280;68900;52.134;5.420;2024-03-07T07:16:15;102728.56;;;2.77;100.00
79455;BME280;68900;52.134;5.420;2024-03-07T07:18:42;102728.56;;;2.77;100.00
79455;BME280;68900;52.134;5.420;2024-03-07T07:21:09;102725.81;;;2.79;100.00
79455;BME280;68900;52.134;5.420;2024-03-07T07:23:40;102735.53;;;2.81;100.00
79455;BME280;68900;52.134;5.420;2024-03-07T07:26:06;102733.81;;;2.79;100.00
79455;BME280;68900;52.134;5.420;2024-03-07T07:29:09;102733.72;;;2.82;100.00
79455;BME280;68900;52.134;5.420;2024-03-07T07:32:56;102725.66;;;2.83;100.00
79455;BME280;68900;52.134;5.420;2024-03-07T07:40:43;102723.53;;;2.93;100.00
79455;BME280;68900;52.134;5.420;2024-03-07T07:43:11;102721.69;;;2.95;100.00
79455;BME280;68900;52.134;5.420;2024-03-07T07:45:51;102713.53;;;2.99;100.00
79455;BME280;68900;52.134;5.420;2024-03-07T07:48:17;102711.56;;;3.04;100.00
79455;BME280;68900;52.134;5.420;2024-03-07T07:50:48;102709.69;;;3.06;100.00
79455;BME280;68900;52.134;5.420;2024-03-07T07:55:53;102704.03;;;3.16;100.00
79455;BME280;68900;52.134;5.420;2024-03-07T07:58:40;102703.84;;;3.20;100.00
79455;BME280;68900;52.134;5.420;2024-03-07T08:01:06;102714.28;;;3.26;100.00
79455;BME280;68900;52.134;5.420;2024-03-07T08:03:36;102714.13;;;3.31;100.00
79455;BME280;68900;52.134;5.420;2024-03-07T08:06:03;102706.81;;;3.36;100.00
79455;BME280;68900;52.134;5.420;2024-03-07T08:08:30;102710.16;;;3.41;100.00
79455;BME280;68900;52.134;5.420;2024-03-07T08:10:56;102709.91;;;3.47;100.00
79455;BME280;68900;52.134;5.420;2024-03-07T08:13:23;102708.81;;;3.52;100.00
79455;BME280;68900;52.134;5.420;2024-03-07T08:15:51;102708.56;;;3.59;100.00
79455;BME280;68900;52.134;5.420;2024-03-07T08:18:20;102718.06;;;3.66;100.00
79455;BME280;68900;52.134;5.420;2024-03-07T08:20:47;102716.94;;;3.71;100.00
79455;BME280;68900;52.134;5.420;2024-03-07T08:23:14;102720.25;;;3.78;100.00
79455;BME280;68900;52.134;5.420;2024-03-07T08:25:40;102718.97;;;3.88;100.00
79455;BME280;68900;52.134;5.420;2024-03-07T08:28:07;102728.44;;;3.95;100.00
79455;BME280;68900;52.134;5.420;2024-03-07T08:30:37;102714.00;;;4.00;99.93
79455;BME280;68900;52.134;5.420;2024-03-07T08:33:04;102718.22;;;4.06;99.40
79455;BME280;68900;52.134;5.420;2024-03-07T08:35:33;102714.38;;;4.12;99.17
79455;BME280;68900;52.134;5.420;2024-03-07T08:37:59;102708.84;;;4.16;98.72
79455;BME280;68900;52.134;5.420;2024-03-07T08:46:25;102710.50;;;4.40;98.61
79455;BME280;68900;52.134;5.420;2024-03-07T08:48:56;102709.31;;;4.48;97.62
79455;BME280;68900;52.134;5.420;2024-03-07T08:51:23;102695.66;;;4.54;97.43
79455;BME280;68900;52.134;5.420;2024-03-07T08:53:49;102698.91;;;4.62;96.58
79455;BME280;68900;52.134;5.420;2024-03-07T08:56:17;102698.59;;;4.68;96.27
79455;BME280;68900;52.134;5.420;2024-03-07T08:58:43;102696.50;;;4.76;96.25
79455;BME280;68900;52.134;5.420;2024-03-07T09:01:10;102697.22;;;4.79;95.35
79455;BME280;68900;52.134;5.420;2024-03-07T09:03:37;102691.66;;;4.84;94.52
79455;BME280;68900;52.134;5.420;2024-03-07T09:06:04;102689.44;;;4.94;94.24
79455;BME280;68900;52.134;5.420;2024-03-07T09:08:31;102692.78;;;4.99;92.87
79455;BME280;68900;52.134;5.420;2024-03-07T09:10:58;102682.84;;;5.01;93.12
79455;BME280;68900;52.134;5.420;2024-03-07T09:13:28;102689.59;;;5.09;92.83
79455;BME280;68900;52.134;5.420;2024-03-07T09:15:54;102689.97;;;5.20;91.78
79455;BME280;68900;52.134;5.420;2024-03-07T09:18:20;102685.94;;;5.30;92.22
79455;BME280;68900;52.134;5.420;2024-03-07T09:20:49;102688.25;;;5.38;90.89
79455;BME280;68900;52.134;5.420;2024-03-07T09:23:15;102689.75;;;5.44;90.37
79455;BME280;68900;52.134;5.420;2024-03-07T09:25:42;102684.25;;;5.47;91.03
79455;BME280;68900;52.134;5.420;2024-03-07T09:28:09;102678.78;;;5.50;89.53
79455;BME280;68900;52.134;5.420;2024-03-07T09:30:40;102678.63;;;5.53;89.08
79455;BME280;68900;52.134;5.420;2024-03-07T09:33:07;102678.63;;;5.53;89.26
79455;BME280;68900;52.134;5.420;2024-03-07T09:35:37;102679.31;;;5.56;89.41
79455;BME280;68900;52.134;5.420;2024-03-07T09:38:05;102685.09;;;5.66;88.09
79455;BME280;68900;52.134;5.420;2024-03-07T09:40:32;102677.72;;;5.71;88.66
79455;BME280;68900;52.134;5.420;2024-03-07T09:43:06;102672.16;;;5.75;87.86
79455;BME280;68900;52.134;5.420;2024-03-07T09:45:40;102672.78;;;5.81;87.48
79455;BME280;68900;52.134;5.420;2024-03-07T09:48:13;102675.97;;;5.89;86.88
79455;BME280;68900;52.134;5.420;2024-03-07T09:50:50;102658.03;;;5.91;85.65
79455;BME280;68900;52.134;5.420;2024-03-07T10:00:46;102664.13;;;6.11;84.32
79455;BME280;68900;52.134;5.420;2024-03-07T10:03:29;102651.34;;;6.16;84.86
79455;BME280;68900;52.134;5.420;2024-03-07T10:05:56;102653.25;;;6.14;85.19
79455;BME280;68900;52.134;5.420;2024-03-07T10:08:41;102652.84;;;6.22;84.45
79455;BME280;68900;52.134;5.420;2024-03-07T10:11:42;102646.31;;;6.28;84.58
79455;BME280;68900;52.134;5.420;2024-03-07T10:14:32;102652.44;;;6.30;83.58
79455;BME280;68900;52.134;5.420;2024-03-07T10:17:02;102648.66;;;6.34;81.48
79455;BME280;68900;52.134;5.420;2024-03-07T10:19:30;102647.47;;;6.39;81.77
79455;BME280;68900;52.134;5.420;2024-03-07T10:22:01;102639.81;;;6.49;81.30
79455;BME280;68900;52.134;5.420;2024-03-07T10:24:30;102643.44;;;6.48;81.27
79455;BME280;68900;52.134;5.420;2024-03-07T10:27:00;102638.81;;;6.51;82.51
79455;BME280;68900;52.134;5.420;2024-03-07T10:29:27;102637.34;;;6.61;81.87
79455;BME280;68900;52.134;5.420;2024-03-07T10:31:53;102637.75;;;6.71;79.75
79455;BME280;68900;52.134;5.420;2024-03-07T10:34:33;102633.00;;;6.76;80.40
79455;BME280;68900;52.134;5.420;2024-03-07T10:37:04;102622.13;;;6.79;78.26
79455;BME280;68900;52.134;5.420;2024-03-07T10:39:30;102627.25;;;6.84;77.32
79455;BME280;68900;52.134;5.420;2024-03-07T10:42:00;102622.56;;;6.87;78.21
79455;BME280;68900;52.134;5.420;2024-03-07T10:44:33;102619.94;;;6.86;77.90
79455;BME280;68900;52.134;5.420;2024-03-07T10:47:08;102617.81;;;6.92;78.37
79455;BME280;68900;52.134;5.420;2024-03-07T10:52:22;102612.44;;;7.08;74.93
79455;BME280;68900;52.134;5.420;2024-03-07T10:55:04;102612.38;;;7.09;76.51
79455;BME280;68900;52.134;5.420;2024-03-07T10:57:50;102610.63;;;7.08;76.25
79455;BME280;68900;52.134;5.420;2024-03-07T11:00:21;102608.69;;;7.12;77.94
79455;BME280;68900;52.134;5.420;2024-03-07T11:02:56;102613.28;;;7.26;76.96
79455;BME280;68900;52.134;5.420;2024-03-07T11:05:26;102604.09;;;7.30;76.14
79455;BME280;68900;52.134;5.420;2024-03-07T11:08:00;102610.31;;;7.30;77.11
79455;BME280;68900;52.134;5.420;2024-03-07T11:10:30;102601.47;;;7.28;76.06
79455;BME280;68900;52.134;5.420;2024-03-07T11:12:59;102595.84;;;7.33;76.97
79455;BME280;68900;52.134;5.420;2024-03-07T11:15:27;102591.34;;;7.33;77.25
79455;BME280;68900;52.134;5.420;2024-03-07T11:17:54;102590.66;;;7.30;75.74
79455;BME280;68900;52.134;5.420;2024-03-07T11:20:26;102595.84;;;7.33;75.76
79455;BME280;68900;52.134;5.420;2024-03-07T11:22:55;102586.47;;;7.40;75.67
79455;BME280;68900;52.134;5.420;2024-03-07T11:25:22;102585.53;;;7.41;74.91
79455;BME280;68900;52.134;5.420;2024-03-07T11:27:55;102572.19;;;7.55;75.75
79455;BME280;68900;52.134;5.420;2024-03-07T11:30:22;102576.59;;;7.56;74.26
79455;BME280;68900;52.134;5.420;2024-03-07T11:32:49;102579.47;;;7.53;74.65
79455;BME280;68900;52.134;5.420;2024-03-07T11:35:21;102578.06;;;7.62;75.29
79455;BME280;68900;52.134;5.420;2024-03-07T11:38:00;102587.34;;;7.56;75.65
79455;BME280;68900;52.134;5.420;2024-03-07T11:40:54;102574.88;;;7.55;76.39
79455;BME280;68900;52.134;5.420;2024-03-07T11:43:28;102576.59;;;7.56;77.32
79455;BME280;68900;52.134;5.420;2024-03-07T11:45:55;102574.59;;;7.60;75.11
79455;BME280;68900;52.134;5.420;2024-03-07T11:48:24;102572.97;;;7.57;75.30
79455;BME280;68900;52.134;5.420;2024-03-07T11:54:58;102569.34;;;7.72;75.79
79455;BME280;68900;52.134;5.420;2024-03-07T11:58:10;102554.34;;;7.84;76.24
79455;BME280;68900;52.134;5.420;2024-03-07T12:01:04;102560.59;;;7.84;74.45
79455;BME280;68900;52.134;5.420;2024-03-07T12:07:06;102552.94;;;7.92;74.45
79455;BME280;68900;52.134;5.420;2024-03-07T12:09:39;102545.94;;;7.90;74.92
79455;BME280;68900;52.134;5.420;2024-03-07T12:12:06;102550.31;;;7.91;73.37
79455;BME280;68900;52.134;5.420;2024-03-07T12:14:36;102544.47;;;7.84;72.67
79455;BME280;68900;52.134;5.420;2024-03-07T12:17:03;102538.22;;;7.84;72.49
79455;BME280;68900;52.134;5.420;2024-03-07T12:19:33;102531.22;;;7.81;73.27
79455;BME280;68900;52.134;5.420;2024-03-07T12:22:02;102532.19;;;7.80;72.67
79455;BME280;68900;52.134;5.420;2024-03-07T12:24:29;102520.97;;;7.88;72.80
79455;BME280;68900;52.134;5.420;2024-03-07T12:27:09;102512.53;;;7.94;72.17
79455;BME280;68900;52.134;5.420;2024-03-07T12:29:40;102500.44;;;8.01;73.21
79455;BME280;68900;52.134;5.420;2024-03-07T12:32:06;102495.75;;;8.05;72.84
79455;BME280;68900;52.134;5.420;2024-03-07T12:34:45;102498.81;;;7.98;72.42
79455;BME280;68900;52.134;5.420;2024-03-07T12:37:14;102485.28;;;8.00;72.68
79455;BME280;68900;52.134;5.420;2024-03-07T12:39:44;102489.41;;;8.06;72.67
79455;BME280;68900;52.134;5.420;2024-03-07T12:42:27;102478.50;;;8.09;71.66
79455;BME280;68900;52.134;5.420;2024-03-07T12:44:55;102476.47;;;8.12;72.80
79455;BME280;68900;52.134;5.420;2024-03-07T12:47:23;102471.56;;;8.19;73.18
79455;BME280;68900;52.134;5.420;2024-03-07T12:49:52;102473.88;;;8.25;72.72
79455;BME280;68900;52.134;5.420;2024-03-07T12:52:18;102476.56;;;8.25;71.65
79455;BME280;68900;52.134;5.420;2024-03-07T12:54:45;102474.25;;;8.19;71.83
79455;BME280;68900;52.134;5.420;2024-03-07T12:57:13;102466.38;;;8.16;71.70
79455;BME280;68900;52.134;5.420;2024-03-07T12:59:43;102454.31;;;8.23;72.76
79455;BME280;68900;52.134;5.420;2024-03-07T13:02:10;102456.13;;;8.22;72.70
79455;BME280;68900;52.134;5.420;2024-03-07T13:04:38;102462.38;;;8.23;73.59
79455;BME280;68900;52.134;5.420;2024-03-07T13:07:09;102451.91;;;8.32;73.66
79455;BME280;68900;52.134;5.420;2024-03-07T13:09:36;102456.03;;;8.38;73.32
79455;BME280;68900;52.134;5.420;2024-03-07T13:12:07;102441.44;;;8.42;73.55
79455;BME280;68900;52.134;5.420;2024-03-07T13:14:36;102431.53;;;8.42;74.20
79455;BME280;68900;52.134;5.420;2024-03-07T13:17:03;102438.00;;;8.40;73.79
79455;BME280;68900;52.134;5.420;2024-03-07T13:19:31;102440.09;;;8.49;72.73
79455;BME280;68900;52.134;5.420;2024-03-07T13:21:58;102439.91;;;8.38;72.61
79455;BME280;68900;52.134;5.420;2024-03-07T13:24:28;102429.84;;;8.41;73.55
79455;BME280;68900;52.134;5.420;2024-03-07T13:26:54;102440.09;;;8.49;72.75
79455;BME280;68900;52.134;5.420;2024-03-07T13:29:26;102429.06;;;8.39;73.98
79455;BME280;68900;52.134;5.420;2024-03-07T13:31:54;102435.69;;;8.34;73.47
79455;BME280;68900;52.134;5.420;2024-03-07T13:34:23;102429.81;;;8.27;74.32
79455;BME280;68900;52.134;5.420;2024-03-07T13:36:52;102422.72;;;8.26;74.17
79455;BME280;68900;52.134;5.420;2024-03-07T13:39:22;102422.88;;;8.23;74.78
79455;BME280;68900;52.134;5.420;2024-03-07T13:41:49;102434.31;;;8.27;76.14
79455;BME280;68900;52.134;5.420;2024-03-07T13:44:17;102418.56;;;8.21;74.87
79455;BME280;68900;52.134;5.420;2024-03-07T13:46:45;102422.44;;;8.17;74.98
79455;BME280;68900;52.134;5.420;2024-03-07T13:49:12;102411.94;;;8.26;76.27
79455;BME280;68900;52.134;5.420;2024-03-07T13:51:44;102411.28;;;8.37;75.89
79455;BME280;68900;52.134;5.420;2024-03-07T13:54:17;102415.69;;;8.38;75.89
79455;BME280;68900;52.134;5.420;2024-03-07T13:57:12;102406.09;;;8.34;76.67
79455;BME280;68900;52.134;5.420;2024-03-07T14:05:40;102402.50;;;8.62;76.71
79455;BME280;68900;52.134;5.420;2024-03-07T14:11:19;102391.34;;;8.68;77.26